createdAt,value
2022-09-09T00:00:22.666Z,4.9
2022-09-09T00:02:24.890Z,5
2022-09-09T00:06:31.815Z,5.7
2022-09-09T00:08:33.986Z,4.3
2022-09-09T00:10:35.889Z,4.9
2022-09-09T00:11:38.452Z,5.2
2022-09-09T00:13:40.481Z,4.4
2022-09-09T00:15:42.562Z,4.9
2022-09-09T00:17:44.573Z,3.9
2022-09-09T00:19:49.642Z,3.7
2022-09-09T00:21:51.694Z,3.6
2022-09-09T00:29:59.807Z,3
2022-09-09T00:32:01.854Z,3.1
2022-09-09T00:38:11.017Z,4.4
2022-09-09T00:40:13.109Z,2.7
2022-09-09T00:42:15.072Z,3.2
2022-09-09T00:44:17.094Z,3.1
2022-09-09T00:46:19.304Z,2.6
2022-09-09T00:48:24.224Z,4
2022-09-09T00:50:26.263Z,3.9
2022-09-09T00:52:28.281Z,3
2022-09-09T00:54:30.314Z,4
2022-09-09T00:56:32.372Z,3.8
2022-09-09T00:58:34.535Z,2.5
2022-09-09T01:00:36.431Z,3
2022-09-09T01:02:41.594Z,3.1
2022-09-09T01:04:43.530Z,3.6
2022-09-09T01:06:45.578Z,4.2
2022-09-09T01:09:50.135Z,3.9
2022-09-09T01:11:52.171Z,4
2022-09-09T01:16:01.855Z,4.5
2022-09-09T01:18:01.349Z,5.1
2022-09-09T01:20:03.385Z,4.4
2022-09-09T01:22:05.402Z,4.1
2022-09-09T01:24:07.431Z,4.5
2022-09-09T01:26:09.469Z,5.1
2022-09-09T01:28:11.495Z,4.6
2022-09-09T01:30:16.609Z,5.3
2022-09-09T01:32:18.634Z,5
2022-09-09T01:34:20.686Z,5
2022-09-09T01:38:24.820Z,5.3
2022-09-09T01:40:26.785Z,5.1
2022-09-09T01:42:28.840Z,5.6
2022-09-09T01:44:33.940Z,5.9
2022-09-09T01:46:35.976Z,6.2
2022-09-09T01:48:38.027Z,5.2
2022-09-09T01:50:40.059Z,6.2
2022-09-09T01:52:42.075Z,6.7
2022-09-09T01:54:44.135Z,5.8
2022-09-09T01:56:46.170Z,6.1
2022-09-09T01:58:51.278Z,6.8
2022-09-09T02:00:53.353Z,6
2022-09-09T02:02:55.336Z,5.6
2022-09-09T02:05:18.375Z,5.5
2022-09-09T02:07:20.401Z,4.7
2022-09-09T02:09:22.436Z,6.1
2022-09-09T02:11:27.534Z,6.2
2022-09-09T02:13:29.582Z,6.2
2022-09-09T02:15:31.644Z,6.3
2022-09-09T02:19:35.703Z,5.8
2022-09-09T02:21:37.741Z,4.8
2022-09-09T02:23:39.768Z,4.7
2022-09-09T02:25:44.875Z,4.8
2022-09-09T02:29:48.965Z,4.9
2022-09-09T02:31:50.998Z,5.1
2022-09-09T02:40:02.423Z,4.6
2022-09-09T02:46:08.404Z,5
2022-09-09T02:48:11.958Z,4.6
2022-09-09T02:50:13.942Z,5.1
2022-09-09T02:58:25.151Z,5.7
2022-09-09T02:59:27.702Z,5.8
2022-09-09T03:01:29.797Z,5.2
2022-09-09T03:03:31.790Z,5.2
2022-09-09T03:05:33.861Z,5.2
2022-09-09T03:11:43.024Z,6.4
2022-09-09T03:13:45.079Z,5.7
2022-09-09T03:17:49.160Z,6
2022-09-09T03:19:51.170Z,6.4
2022-09-09T03:21:56.291Z,6.2
2022-09-09T03:23:58.361Z,5.6
2022-09-09T03:26:00.358Z,6.1
2022-09-09T03:28:02.410Z,6.6
2022-09-09T03:30:04.466Z,5.9
2022-09-09T03:32:06.533Z,7.4
2022-09-09T03:34:08.448Z,7.8
2022-09-09T03:36:13.526Z,7.4
2022-09-09T03:38:15.611Z,7.9
2022-09-09T03:40:17.697Z,6.7
2022-09-09T03:42:19.713Z,6.5
2022-09-09T03:44:21.715Z,7.2
2022-09-09T03:46:23.759Z,8.1
2022-09-09T03:48:25.813Z,7.5
2022-09-09T03:50:30.909Z,9
2022-09-09T03:52:32.935Z,8.1
2022-09-09T03:54:34.996Z,8.7
2022-09-09T03:55:37.556Z,8.9
2022-09-09T03:59:41.653Z,9.8
2022-09-09T04:01:43.784Z,9.4
2022-09-09T04:05:50.843Z,10.7
2022-09-09T04:07:52.884Z,9.9
2022-09-09T04:09:54.939Z,9.9
2022-09-09T04:11:56.995Z,10.4
2022-09-09T04:20:08.207Z,11
2022-09-09T04:24:12.287Z,12.7
2022-09-09T04:28:16.362Z,11.2
2022-09-09T04:30:18.398Z,12.7
2022-09-09T04:32:23.519Z,13.7
2022-09-09T04:34:25.566Z,13.1
2022-09-09T04:36:27.610Z,12.5
2022-09-09T04:40:31.680Z,11.9
2022-09-09T04:51:47.502Z,13.7
2022-09-09T04:53:49.535Z,15.2
2022-09-09T04:55:51.576Z,12.2
2022-09-09T04:57:53.634Z,12.7
2022-09-09T05:08:06.904Z,13.8
2022-09-09T05:10:08.956Z,14.1
2022-09-09T05:18:20.163Z,12.4
2022-09-09T05:20:22.210Z,12.8
2022-09-09T05:22:24.249Z,12.9
2022-09-09T05:24:26.296Z,15.5
2022-09-09T05:26:30.931Z,13.3
2022-09-09T05:28:33.512Z,14.8
2022-09-09T05:30:35.786Z,13.6
2022-09-09T05:32:37.521Z,12.9
2022-09-09T05:34:39.564Z,13.5
2022-09-09T05:36:41.759Z,14.2
2022-09-09T05:40:45.685Z,14.9
2022-09-09T05:44:52.816Z,16.4
2022-09-09T05:49:17.747Z,17.2
2022-09-09T05:53:21.860Z,16.6
2022-09-09T05:55:26.913Z,19.1
2022-09-09T05:59:30.990Z,16.2
2022-09-09T06:01:33.113Z,18.4
2022-09-09T06:03:35.058Z,15.6
2022-09-09T06:05:37.105Z,16.8
2022-09-09T06:07:39.147Z,15.8
2022-09-09T06:09:44.260Z,17.5
2022-09-09T06:11:46.294Z,17.8
2022-09-09T06:17:52.402Z,13.9
2022-09-09T06:19:54.435Z,15.6
2022-09-09T06:21:56.489Z,14.3
2022-09-09T06:24:01.644Z,16.4
2022-09-09T06:26:03.600Z,15.9
2022-09-09T06:28:05.669Z,14.8
2022-09-09T06:30:07.687Z,15.2
2022-09-09T06:36:13.837Z,15.6
2022-09-09T06:38:18.937Z,17.8
2022-09-09T06:40:21.005Z,15.1
2022-09-09T06:42:23.003Z,16.1
2022-09-09T06:43:25.619Z,17.1
2022-09-09T06:45:27.606Z,15.2
2022-09-09T06:47:29.647Z,14.7
2022-09-09T06:49:31.660Z,15
2022-09-09T06:51:36.763Z,13.6
2022-09-09T06:53:38.817Z,14.7
2022-09-09T06:55:40.827Z,15
2022-09-09T06:57:42.868Z,13.3
2022-09-09T07:01:46.998Z,12
2022-09-09T07:05:54.067Z,9.8
2022-09-09T07:07:56.095Z,9.1
2022-09-09T07:12:00.152Z,8.7
2022-09-09T07:14:02.156Z,10.1
2022-09-09T07:16:04.277Z,8.5
2022-09-09T07:22:13.331Z,7.5
2022-09-09T07:24:15.353Z,5.9
2022-09-09T07:28:19.369Z,5.2
2022-09-09T07:30:26.922Z,6
2022-09-09T07:32:23.421Z,4.5
2022-09-09T07:34:28.520Z,5.5
2022-09-09T07:38:32.558Z,4.1
2022-09-09T07:39:35.101Z,4
2022-09-09T07:41:37.100Z,3.6
2022-09-09T07:43:39.105Z,4.4
2022-09-09T07:45:41.133Z,4.6
2022-09-09T07:47:46.190Z,3.6
2022-09-09T07:49:48.184Z,3.5
2022-09-09T07:51:50.197Z,3.7
2022-09-09T07:53:52.194Z,3.4
2022-09-09T07:55:54.207Z,3.2
2022-09-09T07:57:56.228Z,3.4
2022-09-09T07:59:58.233Z,3.5
2022-09-09T08:02:03.385Z,3.2
2022-09-09T08:04:05.330Z,2.8
2022-09-09T08:06:07.328Z,3.2
2022-09-09T08:08:09.319Z,2.7
2022-09-09T08:10:11.345Z,2.6
2022-09-09T08:12:13.338Z,3.1
2022-09-09T08:14:15.332Z,3.3
2022-09-09T08:16:20.447Z,3.7
2022-09-09T08:18:22.426Z,2.8
2022-09-09T08:20:24.412Z,2.8
2022-09-09T08:22:26.408Z,3.5
2022-09-09T08:24:28.392Z,2.6
2022-09-09T08:26:30.553Z,3.2
2022-09-09T08:28:32.406Z,2.7
2022-09-09T08:30:37.474Z,3.3
2022-09-09T08:32:41.002Z,3
2022-09-09T08:35:43.991Z,3.3
2022-09-09T08:37:45.986Z,2.1
2022-09-09T08:39:54.000Z,3
2022-09-09T08:43:56.548Z,1.6
2022-09-09T08:50:02.560Z,2.7
2022-09-09T08:52:04.530Z,2.5
2022-09-09T08:58:13.598Z,2.9
2022-09-09T09:00:15.564Z,2.6
2022-09-09T09:08:23.521Z,2.5
2022-09-09T09:10:41.112Z,2.5
2022-09-09T09:12:30.592Z,2.3
2022-09-09T09:14:32.577Z,2.8
2022-09-09T09:16:34.726Z,2.9
2022-09-09T09:18:36.680Z,3.6
2022-09-09T09:22:40.560Z,2.7
2022-09-09T09:24:42.551Z,2.8
2022-09-09T09:26:47.643Z,2.5
2022-09-09T09:28:49.641Z,2.7
2022-09-09T09:30:51.703Z,2.9
2022-09-09T09:33:08.721Z,2.1
2022-09-09T09:35:10.694Z,3.4
2022-09-09T09:41:19.757Z,3.6
2022-09-09T09:43:21.777Z,2.1
2022-09-09T09:45:23.766Z,2
2022-09-09T09:47:25.749Z,2.3
2022-09-09T09:49:27.739Z,2.4
2022-09-09T09:53:34.852Z,2.5
2022-09-09T10:01:42.868Z,1.9
2022-09-09T10:03:44.818Z,1.8
2022-09-09T10:05:46.803Z,2.2
2022-09-09T10:09:53.889Z,1.7
2022-09-09T10:11:55.890Z,1.8
2022-09-09T10:13:57.878Z,2.3
2022-09-09T10:16:03.300Z,1.9
2022-09-09T10:18:01.875Z,1.4
2022-09-09T10:20:03.877Z,2.4
2022-09-09T10:24:10.947Z,1.8
2022-09-09T10:26:12.937Z,1.8
2022-09-09T10:27:15.464Z,1.7
2022-09-09T10:33:21.461Z,1.5
2022-09-09T10:35:26.514Z,2
2022-09-09T10:37:28.499Z,2.1
2022-09-09T10:39:30.580Z,1.7
2022-09-09T10:41:32.452Z,1.7
2022-09-09T10:43:34.459Z,1.7
2022-09-09T10:45:36.411Z,1.7
2022-09-09T10:47:38.366Z,1.8
2022-09-09T10:49:43.434Z,1.6
2022-09-09T10:51:45.408Z,2.1
2022-09-09T10:53:47.413Z,1.7
2022-09-09T10:55:49.389Z,1.6
2022-09-09T10:57:51.356Z,1.5
2022-09-09T10:59:53.345Z,1.6
2022-09-09T11:01:55.422Z,1.7
2022-09-09T11:04:00.387Z,1.7
2022-09-09T11:06:02.478Z,2.2
2022-09-09T11:08:04.350Z,2.1
2022-09-09T11:10:06.378Z,2.1
2022-09-09T11:12:08.338Z,1.5
2022-09-09T11:14:10.312Z,2
2022-09-09T11:16:12.302Z,2
2022-09-09T11:18:17.365Z,1.6
2022-09-09T11:23:23.895Z,1.5
2022-09-09T11:25:25.878Z,1.6
2022-09-09T11:27:27.859Z,1.7
2022-09-09T11:29:29.874Z,2.1
2022-09-09T11:31:35.118Z,1.8
2022-09-09T11:33:36.896Z,1.7
2022-09-09T11:35:39.320Z,1.4
2022-09-09T11:39:42.901Z,2
2022-09-09T11:41:44.835Z,1.9
2022-09-09T11:45:51.917Z,1.5
2022-09-09T11:47:53.895Z,1.8
2022-09-09T11:51:57.859Z,1.7
2022-09-09T11:58:03.840Z,2.8
2022-09-09T12:00:08.898Z,2.3
2022-09-09T12:02:10.916Z,2.1
2022-09-09T12:04:12.854Z,1.8
2022-09-09T12:06:14.851Z,1.8
2022-09-09T12:08:16.851Z,1.7
2022-09-09T12:10:18.837Z,2.2
2022-09-09T12:12:20.815Z,1.8
2022-09-09T12:14:25.896Z,2.5
2022-09-09T12:16:28.166Z,3
2022-09-09T12:18:29.926Z,2.5
2022-09-09T12:19:32.401Z,2.3
2022-09-09T12:21:34.687Z,2
2022-09-09T12:23:36.578Z,1.9
2022-09-09T12:27:43.409Z,2.1
2022-09-09T12:29:45.404Z,1.6
2022-09-09T12:31:47.375Z,1.5
2022-09-09T12:33:49.354Z,1.1
2022-09-09T12:35:51.333Z,1.5
2022-09-09T12:37:53.314Z,2
2022-09-09T12:46:04.424Z,1.5
2022-09-09T12:48:06.300Z,1.5
2022-09-09T12:50:08.285Z,1.1
2022-09-09T12:52:10.268Z,1.7
2022-09-09T12:56:17.309Z,1.2
2022-09-09T12:58:19.289Z,1.6
2022-09-09T13:00:21.330Z,1.5
2022-09-09T13:02:23.352Z,0.9
2022-09-09T13:04:25.257Z,1.2
2022-09-09T13:06:29.080Z,1.2
2022-09-09T13:08:29.208Z,1.4
2022-09-09T13:10:36.779Z,1.7
2022-09-09T13:12:36.223Z,1.9
2022-09-09T13:14:38.223Z,1.4
2022-09-09T13:17:00.866Z,1.5
2022-09-09T13:19:02.724Z,1.7
2022-09-09T13:21:04.664Z,1.1
2022-09-09T13:23:09.726Z,1.5
2022-09-09T13:25:11.707Z,1.4
2022-09-09T13:27:13.662Z,1.5
2022-09-09T13:29:15.645Z,1
2022-09-09T13:31:17.651Z,1
2022-09-09T13:33:19.573Z,1.3
2022-09-09T13:35:21.543Z,1.6
2022-09-09T13:37:26.587Z,1.4
2022-09-09T13:39:28.571Z,1.6
2022-09-09T13:43:32.537Z,1.4
2022-09-09T13:45:34.476Z,1.2
2022-09-09T13:49:38.396Z,1.2
2022-09-09T13:51:43.434Z,1.5
2022-09-09T13:53:45.421Z,1.4
2022-09-09T13:55:52.200Z,1
2022-09-09T13:57:49.387Z,0.9
2022-09-09T14:01:53.312Z,1.2
2022-09-09T14:03:55.300Z,1.9
2022-09-09T14:10:04.314Z,0.9
2022-09-09T14:11:06.869Z,1.8
2022-09-09T14:13:08.828Z,1.7
2022-09-09T14:15:10.804Z,2
2022-09-09T14:17:12.894Z,1.6
2022-09-09T14:19:18.765Z,1.1
2022-09-09T14:21:20.727Z,1.5
2022-09-09T14:23:22.701Z,1.3
2022-09-09T14:25:24.703Z,1.7
2022-09-09T14:27:26.644Z,1.9
2022-09-09T14:29:28.643Z,1.9
2022-09-09T14:31:32.116Z,1.5
2022-09-09T14:33:37.133Z,1.6
2022-09-09T14:35:39.131Z,2.3
2022-09-09T14:37:41.100Z,2.1
2022-09-09T14:39:43.134Z,1.2
2022-09-09T14:41:45.036Z,1.3
2022-09-09T14:45:49.089Z,2.1
2022-09-09T14:47:54.045Z,1.8
2022-09-09T14:49:56.035Z,2.3
2022-09-09T14:51:57.992Z,2.1
2022-09-09T14:53:59.966Z,1.5
2022-09-09T14:56:01.956Z,2
2022-09-09T14:58:03.929Z,1.7
2022-09-09T15:00:05.902Z,1.7
2022-09-09T15:02:11.069Z,1.7
2022-09-09T15:04:12.929Z,1.7
2022-09-09T15:06:14.893Z,1.3
2022-09-09T15:07:17.436Z,1.7
2022-09-09T15:09:19.392Z,1.2
2022-09-09T15:11:21.346Z,1.6
2022-09-09T15:13:23.332Z,1.7
2022-09-09T15:15:28.403Z,2
2022-09-09T15:17:30.355Z,1.6
2022-09-09T15:19:32.331Z,2.5
2022-09-09T15:21:34.264Z,2
2022-09-09T15:23:36.228Z,1.2
2022-09-09T15:29:45.204Z,1.1
2022-09-09T15:31:47.157Z,1.4
2022-09-09T15:35:51.064Z,1.4
2022-09-09T15:37:52.998Z,1.7
2022-09-09T15:39:54.984Z,1.4
2022-09-09T15:41:56.882Z,1.3
2022-09-09T15:44:01.925Z,1.6
2022-09-09T15:46:04.673Z,1.6
2022-09-09T15:48:05.779Z,1.2
2022-09-09T15:56:13.564Z,2.2
2022-09-09T16:02:22.560Z,1.6
2022-09-09T16:03:25.026Z,1.6
2022-09-09T16:07:28.946Z,1.6
2022-09-09T16:11:35.938Z,1.4
2022-09-09T16:13:38.061Z,1.2
2022-09-09T16:15:39.856Z,0.9
2022-09-09T16:17:41.793Z,1.8
2022-09-09T16:19:43.751Z,1.8
2022-09-09T16:25:52.712Z,1.3
2022-09-09T16:27:54.702Z,1.6
2022-09-09T16:36:02.533Z,1.4
2022-09-09T16:38:04.510Z,1.7
2022-09-09T16:40:09.601Z,2.3
2022-09-09T16:42:11.522Z,2
2022-09-09T16:44:13.492Z,1.8
2022-09-09T16:46:15.615Z,1.3
2022-09-09T16:48:17.516Z,1.9
2022-09-09T16:50:19.461Z,2.2
2022-09-09T16:52:21.448Z,1.7
2022-09-09T16:54:26.496Z,2.2
2022-09-09T16:58:30.454Z,1.4
2022-09-09T17:00:53.361Z,2
2022-09-09T17:02:55.382Z,1.5
2022-09-09T17:04:57.261Z,1.5
2022-09-09T17:07:02.323Z,1.4
2022-09-09T17:09:04.326Z,1.6
2022-09-09T17:11:06.338Z,1.3
2022-09-09T17:13:08.285Z,1.4
2022-09-09T17:15:10.383Z,1.8
2022-09-09T17:17:30.815Z,1.7
2022-09-09T17:19:14.232Z,2.3
2022-09-09T17:21:19.321Z,1.9
2022-09-09T17:31:29.520Z,2.3
2022-09-09T17:33:31.315Z,2.6
2022-09-09T17:35:36.352Z,2.6
2022-09-09T17:37:38.352Z,2.8
2022-09-09T17:39:40.395Z,3.4
2022-09-09T17:41:42.338Z,2.3
2022-09-09T17:43:44.359Z,2.1
2022-09-09T17:45:46.344Z,2
2022-09-09T17:47:48.349Z,2.2
2022-09-09T17:49:53.420Z,2.5
2022-09-09T17:51:55.431Z,3.3
2022-09-09T17:53:57.417Z,2.7
2022-09-09T17:54:59.968Z,2.5
2022-09-09T17:57:01.994Z,2.2
2022-09-09T17:59:03.976Z,2.6
2022-09-09T18:01:06.014Z,3.4
2022-09-09T18:03:11.225Z,3.4
2022-09-09T18:05:13.100Z,4
2022-09-09T18:07:15.111Z,3.9
2022-09-09T18:09:17.150Z,3
2022-09-09T18:11:19.147Z,3.5
2022-09-09T18:13:21.171Z,3.2
2022-09-09T18:15:39.173Z,4.2
2022-09-09T18:17:28.306Z,3.7
2022-09-09T18:19:30.327Z,3.6
2022-09-09T18:21:32.317Z,4
2022-09-09T18:23:34.346Z,4.6
2022-09-09T18:25:36.439Z,3.5
2022-09-09T18:27:38.420Z,4.2
2022-09-09T18:29:40.432Z,5.1
2022-09-09T18:31:45.526Z,3.9
2022-09-09T18:35:49.581Z,4
2022-09-09T18:39:53.659Z,3.8
2022-09-09T18:41:55.658Z,4.3
2022-09-09T18:43:57.703Z,6
2022-09-09T18:46:02.871Z,4.3
2022-09-09T18:48:04.835Z,4.1
2022-09-09T18:50:06.867Z,3.8
2022-09-09T18:51:09.411Z,4.7
2022-09-09T18:53:11.442Z,4.2
2022-09-09T18:55:13.470Z,4.1
2022-09-09T18:57:15.496Z,4.5
2022-09-09T18:59:20.559Z,3.9
2022-09-09T19:03:24.613Z,4
2022-09-09T19:05:26.639Z,3.8
2022-09-09T19:07:28.660Z,4.6
2022-09-09T19:09:30.679Z,4.4
2022-09-09T19:15:39.840Z,3.8
2022-09-09T19:21:45.892Z,5
2022-09-09T19:23:47.917Z,4.9
2022-09-09T19:29:57.251Z,3.7
2022-09-09T19:36:03.126Z,3.9
2022-09-09T19:38:05.143Z,4.6
2022-09-09T19:40:07.208Z,5.2
2022-09-09T19:46:16.382Z,5.2
2022-09-09T19:47:18.859Z,5.5
2022-09-09T19:49:20.874Z,5.5
2022-09-09T19:53:24.945Z,4.6
2022-09-09T19:55:29.998Z,5.4
2022-09-09T19:57:32.013Z,6
2022-09-09T19:59:34.048Z,7.5
2022-09-09T20:01:40.006Z,4.7
2022-09-09T20:03:38.133Z,6.3
2022-09-09T20:05:40.138Z,6
2022-09-09T20:07:42.133Z,6
2022-09-09T20:09:47.226Z,6.5
2022-09-09T20:11:49.255Z,7.5
2022-09-09T20:13:51.270Z,6.5
2022-09-09T20:15:53.372Z,8.4
2022-09-09T20:17:55.331Z,7.4
2022-09-09T20:19:57.363Z,7.7
2022-09-09T20:21:59.398Z,8.1
2022-09-09T20:24:05.995Z,8.1
2022-09-09T20:26:08.023Z,8.4
2022-09-09T20:28:10.053Z,9.6
2022-09-09T20:30:12.075Z,8.5
2022-09-09T20:32:14.093Z,7.4
2022-09-09T20:34:16.139Z,8.3
2022-09-09T20:36:18.156Z,9
2022-09-09T20:38:23.286Z,10.7
2022-09-09T20:40:25.287Z,8.4
2022-09-09T20:42:27.305Z,8.3
2022-09-09T20:50:59.188Z,11.2
2022-09-09T20:59:07.305Z,11.2
2022-09-09T21:01:09.396Z,11.4
2022-09-09T21:03:12.428Z,11.5
2022-09-09T21:05:19.624Z,13.2
2022-09-09T21:07:18.548Z,12.4
2022-09-09T21:09:20.543Z,14
2022-09-09T21:15:33.436Z,11.8
2022-09-09T21:17:28.694Z,12.2
2022-09-09T21:21:35.825Z,13
2022-09-09T21:27:41.912Z,12.8
2022-09-09T21:33:51.112Z,12.7
2022-09-09T21:35:53.133Z,13.6
2022-09-09T21:37:55.167Z,12.2
2022-09-09T21:40:59.764Z,13.4
2022-09-09T21:43:01.801Z,13
2022-09-09T21:45:03.842Z,13.4
2022-09-09T21:49:10.968Z,14
2022-09-09T21:51:13.006Z,12.4
2022-09-09T21:53:15.048Z,12.7
2022-09-09T21:57:24.359Z,12.4
2022-09-09T21:59:21.131Z,12.1
2022-09-09T22:01:26.457Z,11.8
2022-09-09T22:05:30.286Z,13.6
2022-09-09T22:07:32.326Z,11.6
2022-09-09T22:09:34.399Z,13.3
2022-09-09T22:11:36.387Z,14
2022-09-09T22:13:38.461Z,12.8
2022-09-09T22:15:43.549Z,15
2022-09-09T22:18:06.129Z,14.1
2022-09-09T22:25:53.675Z,15.7
2022-09-09T22:27:55.726Z,14.7
2022-09-09T22:30:00.812Z,16.3
2022-09-09T22:35:07.433Z,16.6
2022-09-09T22:39:11.523Z,16.3
2022-09-09T22:41:13.533Z,17.6
2022-09-09T22:43:18.648Z,19.4
2022-09-09T22:45:20.723Z,17.6
2022-09-09T22:47:22.719Z,15.4
2022-09-09T22:49:24.741Z,18.2
2022-09-09T22:51:26.778Z,18
2022-09-09T22:53:28.835Z,18.8
2022-09-09T22:55:30.864Z,19.6
2022-09-09T22:57:35.974Z,20.8
2022-09-09T22:59:38.004Z,21.5
2022-09-09T23:01:40.137Z,20.8
2022-09-09T23:03:42.155Z,20
2022-09-09T23:05:44.127Z,21.8
2022-09-09T23:07:46.197Z,18.7
2022-09-09T23:09:48.205Z,18.3
2022-09-09T23:11:53.279Z,20.5
2022-09-09T23:13:55.312Z,17
2022-09-09T23:15:57.387Z,16.6
2022-09-09T23:17:59.411Z,17.5
2022-09-09T23:20:01.442Z,18.2
2022-09-09T23:22:03.480Z,16.3
2022-09-09T23:24:05.549Z,18.5
2022-09-09T23:26:10.622Z,18.3
2022-09-09T23:28:12.683Z,17.2
2022-09-09T23:30:14.722Z,16.3
2022-09-09T23:33:19.310Z,17.2
2022-09-09T23:35:21.323Z,16.1
2022-09-09T23:45:34.574Z,14.7
2022-09-09T23:49:38.751Z,11.9
2022-09-09T23:51:40.720Z,11.8
2022-09-09T23:53:45.806Z,13.1
2022-09-09T23:55:47.853Z,12.2
2022-09-09T23:57:49.887Z,11.5
